createdAt,value
2018-04-10T00:00:50.685Z,18.00
2018-04-10T00:04:54.169Z,20.43
2018-04-10T00:08:56.902Z,21.40
2018-04-10T00:12:59.419Z,19.07
2018-04-10T00:17:01.970Z,21.83
2018-04-10T00:21:04.491Z,19.47
2018-04-10T00:25:07.042Z,23.03
2018-04-10T00:29:09.554Z,22.40
2018-04-10T00:33:12.115Z,19.93
2018-04-10T00:37:14.638Z,19.37
2018-04-10T00:41:17.283Z,18.77
2018-04-10T00:45:20.557Z,23.77
2018-04-10T00:49:23.110Z,16.67
2018-04-10T00:53:35.265Z,15.20
2018-04-10T00:57:38.830Z,19.83
2018-04-10T01:01:41.352Z,20.80
2018-04-10T01:05:43.987Z,21.17
2018-04-10T01:09:46.530Z,20.57
2018-04-10T01:13:49.089Z,23.13
2018-04-10T01:17:52.374Z,19.87
2018-04-10T01:21:54.928Z,20.73
2018-04-10T01:25:58.205Z,17.33
2018-04-10T01:30:01.734Z,19.00
2018-04-10T01:34:04.252Z,19.00
2018-04-10T01:38:06.882Z,18.47
2018-04-10T01:42:10.166Z,18.00
2018-04-10T01:46:12.827Z,14.77
2018-04-10T01:50:15.342Z,17.17
2018-04-10T01:54:17.893Z,18.47
2018-04-10T01:58:20.406Z,16.73
2018-04-10T02:02:23.026Z,16.70
2018-04-10T02:06:26.306Z,21.07
2018-04-10T02:10:46.549Z,20.70
2018-04-10T02:14:49.089Z,17.37
2018-04-10T02:18:52.407Z,18.23
2018-04-10T02:22:55.694Z,18.17
2018-04-10T02:26:58.249Z,17.77
2018-04-10T02:31:00.766Z,23.13
2018-04-10T02:35:03.315Z,21.40
2018-04-10T02:39:05.837Z,24.50
2018-04-10T02:43:08.414Z,20.23
2018-04-10T02:47:10.926Z,18.63
2018-04-10T02:51:13.473Z,19.87
2018-04-10T02:55:15.986Z,19.03
2018-04-10T02:59:19.130Z,21.87
2018-04-10T03:03:21.734Z,24.37
2018-04-10T03:07:24.386Z,24.20
2018-04-10T03:11:26.926Z,25.33
2018-04-10T03:15:29.470Z,18.27
2018-04-10T03:19:32.009Z,18.53
2018-04-10T03:23:35.026Z,20.23
2018-04-10T03:27:37.549Z,20.43
2018-04-10T03:31:40.116Z,17.97
2018-04-10T03:35:42.641Z,19.37
2018-04-10T03:39:45.300Z,20.97
2018-04-10T03:43:47.846Z,20.60
2018-04-10T03:47:50.405Z,21.33
2018-04-10T03:51:52.921Z,20.67
2018-04-10T03:55:55.472Z,20.57
2018-04-10T04:00:01.926Z,20.50
2018-04-10T04:04:04.527Z,22.43
2018-04-10T04:08:07.058Z,19.03
2018-04-10T04:12:09.615Z,20.87
2018-04-10T04:16:23.794Z,19.07
2018-04-10T04:20:38.193Z,21.13
2018-04-10T04:24:40.734Z,18.10
2018-04-10T04:28:43.279Z,23.47
2018-04-10T04:32:45.806Z,23.43
2018-04-10T04:36:48.421Z,24.60
2018-04-10T04:40:51.870Z,25.80
2018-04-10T04:44:54.421Z,22.27
2018-04-10T04:48:56.939Z,19.93
2018-04-10T04:52:59.573Z,17.83
2018-04-10T04:57:02.337Z,23.73
2018-04-10T05:01:05.731Z,25.80
2018-04-10T05:05:08.278Z,21.10
2018-04-10T05:09:10.818Z,25.23
2018-04-10T05:13:13.337Z,24.93
2018-04-10T05:17:15.966Z,23.87
2018-04-10T05:21:18.489Z,33.03
2018-04-10T05:25:21.142Z,21.83
2018-04-10T05:29:23.662Z,23.20
2018-04-10T05:33:26.333Z,18.40
2018-04-10T05:37:28.882Z,27.77
2018-04-10T05:41:31.455Z,24.73
2018-04-10T05:45:33.986Z,27.53
2018-04-10T05:49:36.532Z,20.60
2018-04-10T05:53:39.051Z,22.53
2018-04-10T05:57:41.598Z,27.93
2018-04-10T06:01:44.108Z,24.53
2018-04-10T06:05:46.721Z,19.67
2018-04-10T06:09:49.247Z,34.83
2018-04-10T06:13:51.884Z,24.90
2018-04-10T06:17:54.410Z,23.27
2018-04-10T06:21:56.955Z,23.83
2018-04-10T06:25:59.484Z,22.97
2018-04-10T06:30:02.806Z,27.70
2018-04-10T06:34:05.326Z,25.80
2018-04-10T06:38:07.954Z,23.73
2018-04-10T06:42:10.467Z,34.30
2018-04-10T06:46:13.099Z,27.90
2018-04-10T06:50:15.668Z,26.80
2018-04-10T06:54:18.226Z,28.83
2018-04-10T06:58:20.741Z,31.50
2018-04-10T07:02:23.310Z,28.97
2018-04-10T07:06:25.882Z,26.60
2018-04-10T07:10:28.460Z,29.33
2018-04-10T07:14:30.969Z,24.73
2018-04-10T07:18:33.528Z,30.57
2018-04-10T07:22:36.048Z,22.87
2018-04-10T07:26:38.603Z,24.53
2018-04-10T07:30:41.126Z,27.33
2018-04-10T07:34:43.676Z,26.50
2018-04-10T07:38:46.202Z,23.77
2018-04-10T07:42:48.843Z,24.93
2018-04-10T07:46:51.366Z,25.37
2018-04-10T07:50:54.094Z,27.07
2018-04-10T07:54:56.615Z,22.80
2018-04-10T07:58:59.154Z,25.33
2018-04-10T08:03:01.694Z,22.70
2018-04-10T08:07:04.374Z,22.53
2018-04-10T08:11:08.853Z,17.97
2018-04-10T08:15:11.494Z,17.20
2018-04-10T08:19:14.162Z,21.13
2018-04-10T08:23:16.726Z,20.23
2018-04-10T08:27:19.257Z,19.40
2018-04-10T08:31:21.891Z,18.73
2018-04-10T08:35:24.414Z,15.83
2018-04-10T08:39:26.974Z,17.37
2018-04-10T08:43:29.503Z,16.97
2018-04-10T08:47:32.054Z,16.80
2018-04-10T08:51:35.344Z,14.93
2018-04-10T08:55:38.067Z,20.57
2018-04-10T08:59:40.634Z,17.40
2018-04-10T09:03:43.314Z,13.93
2018-04-10T09:07:46.598Z,16.60
2018-04-10T09:11:49.147Z,14.60
2018-04-10T09:15:51.667Z,14.30
2018-04-10T09:19:54.300Z,12.67
2018-04-10T09:23:56.814Z,14.40
2018-04-10T09:27:59.372Z,16.23
2018-04-10T09:32:03.106Z,11.00
2018-04-10T09:36:05.662Z,16.63
2018-04-10T09:40:08.170Z,14.27
2018-04-10T09:44:10.803Z,16.37
2018-04-10T09:48:18.592Z,12.10
2018-04-10T09:52:21.219Z,12.40
2018-04-10T09:56:23.731Z,11.50
2018-04-10T10:00:32.018Z,12.40
2018-04-10T10:04:35.282Z,13.60
2018-04-10T10:08:37.922Z,8.77
2018-04-10T10:12:41.199Z,7.60
2018-04-10T10:16:43.770Z,6.03
2018-04-10T10:20:47.231Z,8.07
2018-04-10T10:24:49.786Z,15.10
2018-04-10T10:28:53.070Z,8.80
2018-04-10T10:32:55.611Z,10.97
2018-04-10T10:36:58.916Z,14.70
2018-04-10T10:41:03.549Z,10.20
2018-04-10T10:45:06.064Z,7.80
2018-04-10T10:49:08.614Z,8.10
2018-04-10T10:53:11.889Z,3.23
2018-04-10T10:57:14.455Z,2.40
2018-04-10T11:01:17.049Z,2.60
2018-04-10T11:05:20.362Z,2.20
2018-04-10T11:09:41.802Z,2.67
2018-04-10T11:13:46.334Z,3.03
2018-04-10T11:17:49.566Z,4.60
2018-04-10T11:21:52.417Z,4.70
2018-04-10T11:25:55.686Z,2.57
2018-04-10T11:29:58.360Z,4.53
2018-04-10T11:34:00.880Z,1.80
2018-04-10T11:38:09.562Z,1.70
2018-04-10T11:42:12.076Z,2.27
2018-04-10T11:46:14.767Z,1.80
2018-04-10T11:50:17.339Z,2.90
2018-04-10T11:54:19.882Z,6.13
2018-04-10T11:58:27.285Z,4.10
2018-04-10T12:02:31.779Z,2.20
2018-04-10T12:06:34.306Z,3.83
2018-04-10T12:10:37.623Z,2.40
2018-04-10T12:14:40.910Z,3.23
2018-04-10T12:18:43.450Z,1.80
2018-04-10T12:22:45.981Z,3.77
2018-04-10T12:26:49.480Z,3.10
2018-04-10T12:30:52.758Z,2.73
2018-04-10T12:35:10.586Z,3.07
2018-04-10T12:39:14.034Z,1.37
2018-04-10T12:43:24.946Z,1.63
2018-04-10T12:47:48.179Z,1.40
2018-04-10T12:52:01.271Z,2.77
2018-04-10T12:56:06.981Z,3.43
2018-04-10T13:00:09.515Z,5.00
2018-04-10T13:04:12.027Z,4.70
2018-04-10T13:08:15.389Z,6.20
2018-04-10T13:12:27.866Z,4.87
2018-04-10T13:16:31.368Z,2.00
2018-04-10T13:20:33.874Z,3.90
2018-04-10T13:24:40.114Z,1.97
2018-04-10T13:28:46.874Z,1.50
2018-04-10T13:32:49.426Z,4.77
2018-04-10T13:36:52.702Z,4.03
2018-04-10T13:40:55.378Z,3.93
2018-04-10T13:45:05.870Z,2.00
2018-04-10T13:49:08.450Z,1.53
2018-04-10T13:53:22.029Z,5.13
2018-04-10T13:57:25.499Z,1.67
2018-04-10T14:01:28.015Z,1.70
2018-04-10T14:05:34.327Z,2.83
2018-04-10T14:09:36.841Z,8.33
2018-04-10T14:13:44.257Z,2.13
2018-04-10T14:17:46.783Z,4.87
2018-04-10T14:21:54.002Z,3.17
2018-04-10T14:25:59.246Z,3.30
2018-04-10T14:30:01.958Z,3.63
2018-04-10T14:34:06.486Z,4.87
2018-04-10T14:38:09.118Z,3.80
2018-04-10T14:42:15.814Z,5.53
2018-04-10T14:46:26.623Z,3.43
2018-04-10T14:50:29.159Z,3.00
2018-04-10T14:54:33.570Z,3.33
2018-04-10T14:58:48.515Z,5.40
2018-04-10T15:02:51.059Z,6.10
2018-04-10T15:06:54.599Z,12.07
2018-04-10T15:10:57.211Z,4.57
2018-04-10T15:15:07.335Z,3.00
2018-04-10T15:19:09.927Z,6.83
2018-04-10T15:23:13.215Z,2.50
2018-04-10T15:27:15.906Z,2.90
2018-04-10T15:31:18.479Z,2.53
2018-04-10T15:35:26.512Z,2.17
2018-04-10T15:39:31.059Z,4.90
2018-04-10T15:43:41.395Z,4.60
2018-04-10T15:47:43.946Z,2.17
2018-04-10T15:51:47.258Z,3.60
2018-04-10T15:55:51.795Z,3.67
2018-04-10T15:59:58.602Z,3.13
2018-04-10T16:04:14.353Z,7.17
2018-04-10T16:08:16.946Z,3.33
2018-04-10T16:12:20.227Z,1.90
2018-04-10T16:16:23.850Z,2.43
2018-04-10T16:20:28.313Z,2.80
2018-04-10T16:24:32.883Z,2.23
2018-04-10T16:28:35.393Z,3.13
2018-04-10T16:32:37.934Z,3.23
2018-04-10T16:36:40.454Z,2.23
2018-04-10T16:40:43.114Z,2.07
2018-04-10T16:44:45.639Z,5.30
2018-04-10T16:48:49.032Z,2.70
2018-04-10T16:52:51.557Z,2.17
2018-04-10T16:56:54.258Z,3.03
2018-04-10T17:00:58.803Z,1.30
2018-04-10T17:05:02.298Z,3.83
2018-04-10T17:09:07.678Z,2.40
2018-04-10T17:13:10.244Z,4.83
2018-04-10T17:17:21.283Z,3.87
2018-04-10T17:21:28.880Z,2.53
2018-04-10T17:25:32.338Z,6.00
2018-04-10T17:29:40.106Z,3.17
2018-04-10T17:33:42.623Z,3.00
2018-04-10T17:37:49.359Z,4.53
2018-04-10T17:41:52.255Z,5.97
2018-04-10T17:45:58.007Z,4.63
2018-04-10T17:50:00.531Z,6.43
2018-04-10T17:54:03.859Z,6.50
2018-04-10T17:58:12.315Z,4.70
2018-04-10T18:02:15.888Z,4.83
2018-04-10T18:06:18.402Z,4.97
2018-04-10T18:10:31.726Z,5.70
2018-04-10T18:14:34.246Z,5.43
2018-04-10T18:18:37.825Z,3.47
2018-04-10T18:22:41.102Z,5.03
2018-04-10T18:26:43.646Z,7.43
2018-04-10T18:30:48.207Z,4.93
2018-04-10T18:34:51.586Z,6.67
2018-04-10T18:38:59.661Z,9.10
2018-04-10T18:43:06.966Z,7.03
2018-04-10T18:47:09.498Z,8.67
2018-04-10T18:51:12.893Z,5.77
2018-04-10T18:55:15.436Z,8.00
2018-04-10T18:59:18.354Z,7.37
2018-04-10T19:03:21.844Z,6.07
2018-04-10T19:07:24.399Z,4.30
2018-04-10T19:11:30.710Z,5.80
2018-04-10T19:15:33.279Z,7.13
2018-04-10T19:19:37.034Z,3.63
2018-04-10T19:23:39.599Z,6.50
2018-04-10T19:27:54.169Z,6.67
2018-04-10T19:31:56.726Z,5.03
2018-04-10T19:35:59.290Z,2.57
2018-04-10T19:40:02.148Z,3.57
2018-04-10T19:44:04.675Z,5.23
2018-04-10T19:48:07.229Z,6.37
2018-04-10T19:52:10.703Z,3.07
2018-04-10T19:56:13.309Z,7.63
2018-04-10T20:00:15.830Z,4.10
2018-04-10T20:04:19.705Z,1.97
2018-04-10T20:08:22.243Z,3.27
2018-04-10T20:12:26.750Z,5.93
2018-04-10T20:16:29.282Z,3.00
2018-04-10T20:20:41.969Z,3.27
2018-04-10T20:24:44.485Z,2.40
2018-04-10T20:28:47.139Z,1.53
2018-04-10T20:32:50.437Z,2.33
2018-04-10T20:36:53.770Z,1.97
2018-04-10T20:40:57.070Z,3.27
2018-04-10T20:44:59.622Z,1.83
2018-04-10T20:49:02.176Z,3.20
2018-04-10T20:53:04.734Z,4.73
2018-04-10T20:57:07.252Z,3.27
2018-04-10T21:01:09.804Z,2.90
2018-04-10T21:05:12.346Z,4.43
2018-04-10T21:09:15.662Z,2.30
2018-04-10T21:13:19.954Z,1.83
2018-04-10T21:17:25.454Z,1.93
2018-04-10T21:21:28.021Z,1.43
2018-04-10T21:25:33.938Z,1.23
2018-04-10T21:29:37.451Z,1.97
2018-04-10T21:33:40.107Z,1.13
2018-04-10T21:37:43.431Z,1.90
2018-04-10T21:41:45.969Z,1.67
2018-04-10T21:45:48.488Z,6.43
2018-04-10T21:49:51.139Z,1.57
2018-04-10T21:53:53.654Z,2.93
2018-04-10T21:57:56.214Z,2.83
2018-04-10T22:01:59.762Z,2.60
2018-04-10T22:06:02.398Z,2.37
2018-04-10T22:10:05.685Z,2.37
2018-04-10T22:14:08.341Z,2.83
2018-04-10T22:18:10.852Z,1.60
2018-04-10T22:22:13.407Z,4.73
2018-04-10T22:26:15.922Z,3.27
2018-04-10T22:30:18.461Z,4.27
2018-04-10T22:34:20.975Z,4.00
2018-04-10T22:38:23.532Z,3.07
2018-04-10T22:42:26.820Z,3.77
2018-04-10T22:46:29.451Z,3.87
2018-04-10T22:50:32.735Z,2.77
2018-04-10T22:54:37.016Z,2.80
2018-04-10T22:58:39.535Z,3.50
2018-04-10T23:02:42.865Z,3.53
2018-04-10T23:06:46.155Z,5.23
2018-04-10T23:10:48.711Z,3.93
2018-04-10T23:14:52.003Z,3.23
2018-04-10T23:18:54.564Z,2.73
2018-04-10T23:22:57.091Z,2.57
2018-04-10T23:26:59.658Z,3.00
2018-04-10T23:31:02.956Z,2.43
2018-04-10T23:35:05.527Z,3.07
2018-04-10T23:39:08.037Z,3.30
2018-04-10T23:43:10.594Z,2.40
2018-04-10T23:47:13.119Z,2.90
2018-04-10T23:51:16.435Z,3.73
2018-04-10T23:55:19.718Z,2.50
2018-04-10T23:59:22.287Z,2.77
